Time;durP1;ratioP1;P1;durP2;ratioP2;P2;SDS_P1;SDS_P2;PMS_P1;PMS_P2;Temp;Humidity;BMP_temperature;BMP_pressure;BME280_temperature;BME280_humidity;BME280_pressure;Samples;Min_cycle;Max_cycle;Signal;HPM_P1;HPM_P2
2022/03/02 00:01:46;;;;;;;1.55;1.45;;;;;;;7.21;46.14;102025.53;5233214;28;19917;-78
2022/03/02 00:04:16;;;;;;;1.13;1.13;;;;;;;7.22;47.00;102029.91;5245330;28;20043;-78
2022/03/02 00:06:47;;;;;;;1.58;1.48;;;;;;;7.26;46.51;102020.34;5228192;28;20058;-79
2022/03/02 00:09:17;;;;;;;2.38;2.25;;;;;;;7.19;46.45;102024.63;5242028;28;20035;-79
2022/03/02 00:11:50;;;;;;;4.00;1.85;;;;;;;7.20;46.69;102026.38;5246003;28;20492;-79
2022/03/02 00:14:21;;;;;;;0.60;0.60;;;;;;;7.11;47.00;102028.06;5228098;28;20623;-78
2022/03/02 00:16:53;;;;;;;2.00;1.85;;;;;;;7.09;46.26;102028.03;5245984;28;20127;-78
2022/03/02 00:19:25;;;;;;;1.57;1.47;;;;;;;7.09;46.68;102030.63;5222042;28;20045;-78
2022/03/02 00:21:55;;;;;;;1.63;1.52;;;;;;;7.15;46.52;102028.06;5229424;28;20036;-79
2022/03/02 00:24:26;;;;;;;2.72;2.20;;;;;;;7.21;46.15;102028.13;5247435;28;20102;-78
2022/03/02 00:26:57;;;;;;;2.08;1.52;;;;;;;7.17;46.70;102030.72;5250932;28;20682;-79
2022/03/02 00:29:28;;;;;;;1.70;1.60;;;;;;;7.08;46.61;102032.38;5226674;28;20106;-79
2022/03/02 00:31:58;;;;;;;1.17;1.15;;;;;;;7.07;46.62;102021.91;5239862;28;20750;-79
2022/03/02 00:34:29;;;;;;;1.92;1.42;;;;;;;7.11;46.60;102026.31;5221454;28;20113;-78
2022/03/02 00:36:59;;;;;;;1.33;1.25;;;;;;;7.02;47.00;102021.00;5239595;28;20133;-79
2022/03/02 00:39:30;;;;;;;0.73;0.73;;;;;;;6.99;47.01;102021.88;5234572;28;20037;-80
2022/03/02 00:42:01;;;;;;;0.50;0.50;;;;;;;6.98;46.65;102017.50;5249728;28;20044;-78
2022/03/02 00:44:33;;;;;;;0.90;0.80;;;;;;;7.03;46.68;102018.41;5228464;28;20128;-78
2022/03/02 00:47:04;;;;;;;0.70;0.70;;;;;;;7.02;46.21;102008.84;5246335;28;20020;-79
2022/03/02 00:49:38;;;;;;;2.90;2.63;;;;;;;6.93;46.43;102009.63;5246641;28;20925;-78
2022/03/02 00:52:14;;;;;;;2.45;2.25;;;;;;;6.84;46.87;102009.53;5243774;28;20044;-78
2022/03/02 00:54:44;;;;;;;0.85;0.85;;;;;;;6.83;46.58;102004.31;5224591;28;20037;-81
2022/03/02 00:57:17;;;;;;;0.85;0.85;;;;;;;6.80;46.80;101989.53;5245903;28;20032;-78
2022/03/02 00:59:48;;;;;;;0.45;0.45;;;;;;;6.84;46.59;102003.47;5226633;28;20036;-78
2022/03/02 01:02:19;;;;;;;2.83;2.00;;;;;;;6.75;46.86;101991.19;5232234;28;20034;-79
2022/03/02 01:04:50;;;;;;;1.23;1.23;;;;;;;6.67;46.71;101982.41;5197231;28;20073;-79
2022/03/02 01:07:21;;;;;;;1.20;1.10;;;;;;;6.72;46.25;101983.38;5223629;28;20064;-79
2022/03/02 01:09:52;;;;;;;0.60;0.60;;;;;;;6.62;46.68;101979.78;5204908;28;20144;-78
2022/03/02 01:12:22;;;;;;;0.95;0.95;;;;;;;6.64;45.94;101975.44;5248273;28;20120;-78
2022/03/02 01:14:53;;;;;;;1.42;1.33;;;;;;;6.61;46.43;101973.69;5223379;28;20070;-79
2022/03/02 01:17:23;;;;;;;0.55;0.55;;;;;;;6.65;45.65;101977.19;5247333;28;20036;-79
2022/03/02 01:19:54;;;;;;;1.63;1.52;;;;;;;6.66;45.63;101975.47;5240468;28;20427;-81
2022/03/02 01:22:26;;;;;;;0.65;0.65;;;;;;;6.35;45.77;101976.06;5224785;28;20070;-80
2022/03/02 01:24:56;;;;;;;0.85;0.68;;;;;;;6.46;46.02;101979.63;5237218;28;20123;-78
2022/03/02 01:27:29;;;;;;;0.80;0.80;;;;;;;6.05;45.67;101976.56;5209288;28;20108;-79
2022/03/02 01:30:00;;;;;;;2.50;2.05;;;;;;;6.10;46.29;101980.09;5245070;28;20048;-79
2022/03/02 01:32:36;;;;;;;1.73;1.52;;;;;;;6.28;45.77;101982.06;5211064;28;20528;-79
2022/03/02 01:35:11;;;;;;;1.42;1.33;;;;;;;6.23;45.70;101979.41;5228352;28;20036;-79
2022/03/02 01:37:44;;;;;;;0.75;0.75;;;;;;;6.10;46.12;101982.69;5245051;28;20072;-80
2022/03/02 01:40:17;;;;;;;1.45;1.35;;;;;;;6.15;45.96;101983.66;5240727;28;20048;-78
2022/03/02 01:42:47;;;;;;;2.05;1.92;;;;;;;6.22;45.87;101980.25;5241963;28;20442;-79
2022/03/02 01:45:18;;;;;;;1.45;1.42;;;;;;;6.17;45.24;101968.88;5239442;28;20047;-79
2022/03/02 01:47:49;;;;;;;3.03;2.72;;;;;;;6.14;46.30;101974.94;5246763;28;20040;-79
2022/03/02 01:50:20;;;;;;;1.27;1.25;;;;;;;6.13;46.05;101970.56;5241251;28;20086;-79
2022/03/02 01:52:50;;;;;;;0.75;0.75;;;;;;;6.19;45.71;101979.34;5242990;28;20064;-79
2022/03/02 01:55:21;;;;;;;0.85;0.85;;;;;;;6.18;46.53;101967.16;5243996;28;20039;-78
2022/03/02 01:57:52;;;;;;;2.25;2.08;;;;;;;6.20;45.84;101966.31;5238619;28;20037;-80
2022/03/02 02:00:23;;;;;;;0.77;0.77;;;;;;;6.12;46.95;101966.22;5196085;28;20095;-78
2022/03/02 02:02:54;;;;;;;1.50;1.40;;;;;;;6.11;46.91;101956.69;5222565;28;20043;-81
2022/03/02 02:05:24;;;;;;;0.98;0.98;;;;;;;6.05;46.99;101955.72;5217270;28;20044;-79
2022/03/02 02:07:55;;;;;;;1.25;1.23;;;;;;;6.10;46.72;101959.25;5220325;28;20056;-79
2022/03/02 02:10:26;;;;;;;0.60;0.60;;;;;;;6.07;47.57;101952.28;5186276;28;20048;-78
2022/03/02 02:12:56;;;;;;;5.43;3.78;;;;;;;6.02;47.42;101951.38;5223200;28;20123;-80
2022/03/02 02:15:27;;;;;;;7.63;1.50;;;;;;;5.98;47.75;101950.41;5232854;28;20040;-79
2022/03/02 02:17:57;;;;;;;1.38;1.33;;;;;;;6.01;47.66;101954.81;5229856;28;20495;-82
2022/03/02 02:20:28;;;;;;;1.88;1.77;;;;;;;6.11;47.11;101954.06;5223338;28;20064;-79
2022/03/02 02:23:06;;;;;;;2.08;1.95;;;;;;;6.13;46.71;101951.47;5207908;28;20029;-81
2022/03/02 02:25:37;;;;;;;1.20;1.15;;;;;;;6.08;47.18;101945.31;5201430;28;20091;-83
2022/03/02 02:28:10;;;;;;;0.55;0.55;;;;;;;6.01;47.10;101946.13;5242732;28;20074;-78
2022/03/02 02:30:51;;;;;;;7.20;2.15;;;;;;;5.91;47.46;101932.09;5218735;28;20079;-79
2022/03/02 02:33:32;;;;;;;1.30;1.10;;;;;;;5.82;47.90;101938.06;5201795;28;20036;-78
2022/03/02 02:36:11;;;;;;;1.02;1.02;;;;;;;5.94;46.91;101935.59;5201064;28;20037;-78
2022/03/02 02:38:42;;;;;;;1.80;1.48;;;;;;;5.87;47.53;101936.38;5208377;28;20056;-80
2022/03/02 02:41:15;;;;;;;2.58;2.38;;;;;;;5.96;47.47;101935.59;5206276;28;20183;-78
2022/03/02 02:43:46;;;;;;;0.70;0.70;;;;;;;5.87;47.74;101941.59;5240479;28;20032;-78
2022/03/02 02:46:20;;;;;;;2.25;2.00;;;;;;;5.90;47.40;101925.13;5238471;28;20071;-79
2022/03/02 02:48:50;;;;;;;0.77;0.77;;;;;;;5.83;47.43;101925.06;5237790;28;20040;-79
2022/03/02 02:51:21;;;;;;;1.05;1.05;;;;;;;5.82;47.63;101930.25;5238976;28;20063;-80
2022/03/02 02:53:51;;;;;;;0.95;0.93;;;;;;;5.63;48.54;101931.72;5241753;28;20039;-79
2022/03/02 02:56:22;;;;;;;1.70;1.48;;;;;;;5.65;48.18;101927.44;5237588;28;20407;-80
2022/03/02 02:58:53;;;;;;;1.58;1.48;;;;;;;5.70;47.97;101924.88;5238535;28;20689;-78
2022/03/02 03:01:23;;;;;;;0.50;0.50;;;;;;;5.65;47.94;101925.72;5220078;28;20033;-79
2022/03/02 03:03:54;;;;;;;0.93;0.93;;;;;;;5.72;47.49;101920.56;5241389;28;20032;-78
2022/03/02 03:06:27;;;;;;;0.73;0.73;;;;;;;5.65;47.82;101915.28;5230643;28;20040;-79
2022/03/02 03:08:57;;;;;;;0.50;0.50;;;;;;;5.65;47.87;101910.09;5225982;28;20024;-78
2022/03/02 03:11:28;;;;;;;0.52;0.52;;;;;;;5.57;48.25;101906.50;5247613;28;20036;-79
2022/03/02 03:13:59;;;;;;;0.90;0.90;;;;;;;5.51;48.78;101907.31;5223944;28;20472;-80
2022/03/02 03:16:29;;;;;;;4.43;4.05;;;;;;;5.55;47.72;101913.44;5240900;28;20037;-79
2022/03/02 03:19:00;;;;;;;0.93;0.93;;;;;;;5.47;47.96;101900.28;5202385;28;20093;-79
2022/03/02 03:21:36;;;;;;;0.80;0.80;;;;;;;5.54;48.01;101905.59;5207678;28;20078;-79
2022/03/02 03:24:07;;;;;;;1.23;1.17;;;;;;;5.53;47.80;101898.66;5236252;28;20036;-79
2022/03/02 03:26:40;;;;;;;1.10;1.10;;;;;;;5.48;48.30;101895.97;5204350;28;20082;-78
2022/03/02 03:29:11;;;;;;;0.93;0.93;;;;;;;5.45;48.16;101895.94;5239033;28;20036;-79
2022/03/02 03:31:45;;;;;;;1.80;1.70;;;;;;;5.37;48.09;101898.44;5224128;28;20028;-79
2022/03/02 03:34:18;;;;;;;1.40;1.30;;;;;;;5.35;48.39;101901.00;5232512;28;20060;-81
2022/03/02 03:36:49;;;;;;;1.98;1.80;;;;;;;5.27;48.54;101897.41;5247059;28;20441;-80
2022/03/02 03:39:20;;;;;;;1.58;1.50;;;;;;;5.32;47.79;101889.69;5236249;28;20040;-81
2022/03/02 03:41:50;;;;;;;2.28;2.15;;;;;;;5.24;47.91;101887.00;5244397;28;20040;-79
2022/03/02 03:44:22;;;;;;;1.00;1.00;;;;;;;5.18;48.23;101890.38;5245258;28;20493;-78
2022/03/02 03:46:53;;;;;;;1.40;1.30;;;;;;;5.16;47.40;101888.63;5235656;28;20647;-79
2022/03/02 03:49:23;;;;;;;0.73;0.73;;;;;;;5.16;47.67;101892.06;5230630;28;20072;-79
2022/03/02 03:51:54;;;;;;;0.60;0.60;;;;;;;5.10;47.72;101888.50;5225112;28;20063;-80
2022/03/02 03:54:25;;;;;;;5.00;1.55;;;;;;;5.19;47.76;101888.63;5237881;28;20036;-79
2022/03/02 03:57:07;;;;;;;0.47;0.47;;;;;;;5.18;47.99;101895.59;5229259;28;20044;-79
2022/03/02 03:59:40;;;;;;;1.70;1.60;;;;;;;5.16;47.72;101888.63;5199545;28;20580;-81
2022/03/02 04:02:10;;;;;;;0.50;0.50;;;;;;;5.14;47.45;101893.78;5230562;28;20041;-79
2022/03/02 04:04:51;;;;;;;1.70;1.60;;;;;;;5.15;47.54;101894.66;5203054;28;20037;-80
2022/03/02 04:07:27;;;;;;;0.68;0.68;;;;;;;5.22;47.14;101898.22;5192679;28;20128;-78
2022/03/02 04:10:01;;;;;;;0.70;0.70;;;;;;;4.84;46.61;101883.78;5204435;28;20802;-79
2022/03/02 04:12:32;;;;;;;1.10;1.10;;;;;;;4.99;47.54;101886.66;5204117;28;20029;-79
2022/03/02 04:15:08;;;;;;;1.05;1.00;;;;;;;5.00;47.73;101877.09;5201288;28;20139;-82
2022/03/02 04:17:42;;;;;;;0.98;0.98;;;;;;;5.10;48.12;101878.09;5216508;28;20036;-78
2022/03/02 04:20:12;;;;;;;0.52;0.52;;;;;;;5.07;47.92;101871.13;5232195;28;20117;-79
2022/03/02 04:22:46;;;;;;;;;;;;;;;5.10;48.35;101878.09;5229987;28;20024;-79
2022/03/02 04:25:16;;;;;;;4.38;2.08;;;;;;;5.00;47.89;101871.91;5265041;28;19916;-79
2022/03/02 04:27:47;;;;;;;0.80;0.80;;;;;;;4.91;47.74;101867.44;5228317;28;20040;-80
2022/03/02 04:30:17;;;;;;;0.40;0.40;;;;;;;4.95;47.32;101865.75;5240454;28;20044;-78
2022/03/02 04:32:48;;;;;;;0.70;0.70;;;;;;;5.06;48.16;101865.91;5226878;28;20566;-80
2022/03/02 04:35:18;;;;;;;3.85;2.35;;;;;;;4.97;47.81;101862.31;5239647;28;20048;-79
2022/03/02 04:37:49;;;;;;;1.23;1.13;;;;;;;5.04;48.15;101868.50;5245700;28;20032;-77
2022/03/02 04:40:20;;;;;;;3.05;2.13;;;;;;;5.01;47.89;101866.72;5210552;28;20158;-78
2022/03/02 04:42:50;;;;;;;0.68;0.68;;;;;;;5.08;47.94;101859.00;5241325;28;20047;-81
2022/03/02 04:45:25;;;;;;;1.33;1.25;;;;;;;4.83;46.79;101858.66;5234983;28;20120;-82
2022/03/02 04:47:57;;;;;;;0.70;0.70;;;;;;;4.97;47.81;101851.94;5240153;28;20099;-78
2022/03/02 04:50:28;;;;;;;0.60;0.60;;;;;;;5.06;47.50;101855.50;5226083;28;20044;-79
2022/03/02 04:52:59;;;;;;;1.50;1.42;;;;;;;4.96;46.64;101854.50;5209881;28;20027;-81
2022/03/02 04:55:30;;;;;;;1.55;1.45;;;;;;;5.00;47.54;101857.16;5223468;28;20682;-78
2022/03/02 04:58:01;;;;;;;2.75;2.58;;;;;;;4.93;47.99;101855.31;5250150;28;20036;-78
2022/03/02 05:00:35;;;;;;;2.45;1.48;;;;;;;4.98;47.43;101848.47;5221814;28;20047;-80
2022/03/02 05:03:09;;;;;;;2.30;2.20;;;;;;;5.10;47.92;101862.50;5259421;28;20031;-79
2022/03/02 05:05:40;;;;;;;1.38;1.27;;;;;;;5.02;47.56;101863.25;5220979;28;20049;-79
2022/03/02 05:08:10;;;;;;;1.92;1.42;;;;;;;5.10;47.83;101863.38;5220370;28;20037;-79
2022/03/02 05:10:41;;;;;;;1.02;1.02;;;;;;;5.03;48.01;101859.81;5224108;28;20048;-80
2022/03/02 05:13:14;;;;;;;0.50;0.50;;;;;;;4.88;47.76;101851.78;5208666;28;20573;-79
2022/03/02 05:15:45;;;;;;;0.65;0.65;;;;;;;4.82;47.90;101846.50;5238571;28;20091;-79
2022/03/02 05:18:15;;;;;;;0.60;0.60;;;;;;;4.99;47.77;101847.63;5225563;28;20815;-79
2022/03/02 05:20:50;;;;;;;3.95;1.58;;;;;;;4.99;47.63;101847.63;5230282;28;20066;-81
2022/03/02 05:23:21;;;;;;;0.65;0.65;;;;;;;4.98;48.08;101843.28;5222863;28;20202;-78
2022/03/02 05:25:54;;;;;;;0.93;0.93;;;;;;;5.03;48.02;101851.13;5239850;28;20051;-79
2022/03/02 05:28:24;;;;;;;0.88;0.88;;;;;;;4.88;48.77;101854.38;5245943;28;20071;-79
2022/03/02 05:30:55;;;;;;;1.13;1.13;;;;;;;5.01;47.95;101848.50;5241715;28;21028;-79
2022/03/02 05:33:26;;;;;;;0.75;0.75;;;;;;;5.03;48.04;101846.81;5238358;28;20716;-79
2022/03/02 05:35:58;;;;;;;1.50;1.40;;;;;;;5.10;47.50;101846.88;5208127;28;20041;-81
2022/03/02 05:38:29;;;;;;;1.00;1.00;;;;;;;5.14;48.22;101846.94;5239074;28;20039;-79
2022/03/02 05:40:59;;;;;;;1.75;1.65;;;;;;;5.14;47.67;101851.28;5225559;28;20044;-80
2022/03/02 05:43:30;;;;;;;1.13;1.13;;;;;;;5.12;48.00;101846.06;5249754;28;20067;-80
2022/03/02 05:46:01;;;;;;;4.47;1.60;;;;;;;5.15;47.83;101850.44;5208800;28;20075;-82
2022/03/02 05:48:31;;;;;;;0.50;0.50;;;;;;;5.15;48.11;101847.84;5226738;28;20029;-80
2022/03/02 05:51:11;;;;;;;0.77;0.77;;;;;;;5.06;48.23;101851.16;5209897;28;20079;-79
2022/03/02 05:53:44;;;;;;;8.40;4.00;;;;;;;5.08;48.58;101856.41;5190222;28;20093;-80
2022/03/02 05:56:23;;;;;;;0.60;0.60;;;;;;;5.09;48.78;101852.94;5187128;28;20044;-80
2022/03/02 05:58:58;;;;;;;3.50;1.33;;;;;;;5.05;48.92;101846.81;5219390;28;20040;-79
2022/03/02 06:01:28;;;;;;;4.00;2.53;;;;;;;5.06;48.96;101853.75;5234517;28;20047;-79
2022/03/02 06:04:00;;;;;;;2.35;1.48;;;;;;;5.08;48.55;101851.22;5212284;28;20028;-80
2022/03/02 06:06:43;;;;;;;2.92;2.47;;;;;;;5.06;48.48;101853.75;5206816;28;20036;-80
2022/03/02 06:09:14;;;;;;;1.70;1.60;;;;;;;5.03;48.56;101857.22;5203253;28;20059;-80
2022/03/02 06:11:47;;;;;;;0.82;0.82;;;;;;;5.07;48.77;101846.84;5236631;28;20048;-80
2022/03/02 06:14:20;;;;;;;1.20;1.20;;;;;;;5.02;48.42;101839.84;5223464;28;20570;-82
2022/03/02 06:16:58;;;;;;;0.90;0.90;;;;;;;5.04;48.48;101848.56;5241686;28;20037;-79
2022/03/02 06:19:29;;;;;;;1.17;1.08;;;;;;;5.06;48.79;101851.16;5212124;28;20041;-80
2022/03/02 06:22:02;;;;;;;1.40;1.33;;;;;;;5.10;48.41;101846.88;5207257;28;20283;-80
2022/03/02 06:24:33;;;;;;;8.57;2.45;;;;;;;5.06;48.86;101845.09;5232158;28;20082;-79
2022/03/02 06:27:04;;;;;;;0.98;0.98;;;;;;;5.05;48.50;101841.59;5234700;28;20056;-81
2022/03/02 06:29:34;;;;;;;2.58;1.50;;;;;;;5.07;48.85;101852.06;5224055;28;20079;-83
2022/03/02 06:32:05;;;;;;;1.13;1.13;;;;;;;5.04;48.84;101851.16;5227043;28;20119;-80
2022/03/02 06:34:36;;;;;;;1.15;1.15;;;;;;;5.02;49.03;101854.59;5222977;28;20085;-80
2022/03/02 06:37:08;;;;;;;1.45;1.35;;;;;;;4.99;48.59;101850.22;5213566;28;20605;-81
2022/03/02 06:39:39;;;;;;;1.65;1.55;;;;;;;5.04;48.64;101852.91;5218005;28;20033;-80
2022/03/02 06:42:25;;;;;;;1.00;1.00;;;;;;;5.08;48.32;101851.22;5206265;28;20036;-81
2022/03/02 06:45:00;;;;;;;0.65;0.65;;;;;;;5.03;48.87;101852.00;5210058;28;20130;-80
2022/03/02 06:47:45;;;;;;;1.50;1.40;;;;;;;4.94;48.79;101854.47;5219511;28;20041;-82
2022/03/02 06:50:25;;;;;;;0.90;0.90;;;;;;;5.01;48.41;101855.44;5189680;28;20051;-81
2022/03/02 06:53:01;;;;;;;4.47;3.05;;;;;;;5.08;48.98;101857.28;5196018;28;20037;-79
2022/03/02 06:55:34;;;;;;;1.77;1.65;;;;;;;4.86;48.52;101853.47;5203982;28;20048;-79
2022/03/02 06:58:09;;;;;;;0.82;0.82;;;;;;;4.81;48.99;101856.00;5221044;28;20033;-79
2022/03/02 07:00:39;;;;;;;2.20;1.55;;;;;;;4.84;49.01;101852.56;5215905;28;20064;-80
2022/03/02 07:03:11;;;;;;;2.20;1.95;;;;;;;4.93;48.63;101852.72;5223802;28;20056;-81
2022/03/02 07:05:41;;;;;;;2.42;2.22;;;;;;;4.93;49.26;101852.72;5238068;28;20045;-82
2022/03/02 07:08:13;;;;;;;1.05;1.05;;;;;;;4.93;48.97;101854.47;5257417;28;20114;-79
2022/03/02 07:10:43;;;;;;;2.03;1.85;;;;;;;4.98;48.91;101858.00;5244950;28;20044;-81
2022/03/02 07:13:16;;;;;;;1.65;1.27;;;;;;;5.02;49.05;101854.59;5242587;28;20424;-80
2022/03/02 07:15:47;;;;;;;0.85;0.85;;;;;;;4.99;49.42;101859.75;5240764;28;20041;-80
2022/03/02 07:18:18;;;;;;;1.63;1.58;;;;;;;5.04;49.40;101852.91;5225037;28;20032;-77
2022/03/02 07:20:50;;;;;;;1.35;1.35;;;;;;;5.12;48.51;101858.19;5220600;28;20040;-80
2022/03/02 07:23:23;;;;;;;1.47;1.47;;;;;;;5.07;49.62;101859.88;5229955;28;20036;-77
2022/03/02 07:25:59;;;;;;;1.55;1.42;;;;;;;5.09;49.63;101863.34;5238486;28;20043;-80
2022/03/02 07:28:36;;;;;;;0.63;0.63;;;;;;;5.07;49.29;101863.31;5209967;28;20098;-79
2022/03/02 07:31:08;;;;;;;1.10;1.10;;;;;;;5.11;49.32;101874.66;5242487;28;20076;-80
2022/03/02 07:33:42;;;;;;;1.23;1.15;;;;;;;5.11;49.19;101878.13;5240664;28;20071;-80
2022/03/02 07:36:13;;;;;;;1.38;1.33;;;;;;;5.13;49.43;101879.00;5245193;28;20053;-77
2022/03/02 07:38:43;;;;;;;2.55;2.35;;;;;;;4.91;49.32;101880.44;5233537;28;20090;-77
2022/03/02 07:41:15;;;;;;;0.60;0.60;;;;;;;5.07;49.71;101867.66;5239439;28;20044;-78
2022/03/02 07:43:47;;;;;;;0.90;0.90;;;;;;;5.08;49.37;101872.03;5224373;28;20036;-79
2022/03/02 07:46:18;;;;;;;1.10;1.10;;;;;;;5.06;49.51;101876.31;5213936;28;20029;-78
2022/03/02 07:48:48;;;;;;;2.60;1.83;;;;;;;5.13;49.47;101868.59;5221063;28;20032;-78
2022/03/02 07:51:22;;;;;;;0.88;0.88;;;;;;;5.19;49.75;101867.81;5208480;28;20040;-79
2022/03/02 07:54:00;;;;;;;0.50;0.50;;;;;;;5.19;49.55;101867.81;5229016;28;20032;-78
2022/03/02 07:56:32;;;;;;;0.50;0.50;;;;;;;5.15;49.27;101866.03;5193073;28;20060;-78
2022/03/02 07:59:07;;;;;;;1.00;1.00;;;;;;;5.10;48.37;101863.38;5216672;28;20049;-78
2022/03/02 08:01:39;;;;;;;1.15;1.15;;;;;;;5.19;48.83;101854.81;5194600;28;20483;-79
2022/03/02 08:04:10;;;;;;;1.50;1.27;;;;;;;5.13;47.75;101854.75;5205644;28;20079;-78
2022/03/02 08:06:41;;;;;;;0.70;0.70;;;;;;;5.07;48.30;101846.84;5194462;28;20033;-78
2022/03/02 08:09:14;;;;;;;1.90;1.75;;;;;;;5.17;48.02;101848.69;5190174;28;20041;-80
2022/03/02 08:11:45;;;;;;;1.10;1.10;;;;;;;5.18;48.13;101848.75;5213392;28;20033;-79
2022/03/02 08:14:18;;;;;;;1.65;1.40;;;;;;;5.25;47.74;101843.63;5212808;28;20044;-79
2022/03/02 08:16:48;;;;;;;0.68;0.68;;;;;;;5.11;46.60;101839.13;5202764;28;20500;-81
2022/03/02 08:19:20;;;;;;;0.80;0.80;;;;;;;5.20;47.57;101848.75;5181939;28;20052;-78
2022/03/02 08:21:57;;;;;;;5.55;3.55;;;;;;;5.27;47.91;101844.53;5199558;28;21602;-78
2022/03/02 08:24:29;;;;;;;1.50;1.40;;;;;;;5.12;47.17;101850.38;5211795;28;20041;-79
2022/03/02 08:27:02;;;;;;;1.23;1.23;;;;;;;5.23;47.73;101843.59;5212865;28;20080;-79
2022/03/02 08:29:32;;;;;;;1.10;1.10;;;;;;;5.24;46.58;101844.47;5214820;28;20119;-81
2022/03/02 08:32:07;;;;;;;10.60;2.72;;;;;;;5.32;47.73;101838.53;5241957;28;20529;-79
2022/03/02 08:34:43;;;;;;;1.52;1.42;;;;;;;5.26;47.34;101838.41;5209965;28;20033;-79
2022/03/02 08:37:17;;;;;;;1.00;1.00;;;;;;;5.30;47.35;101824.59;5216906;28;20139;-81
2022/03/02 08:39:48;;;;;;;0.77;0.77;;;;;;;5.23;47.24;101832.31;5202065;28;20504;-77
2022/03/02 08:42:18;;;;;;;0.60;0.60;;;;;;;5.28;47.68;101836.72;5206708;28;20036;-79
2022/03/02 08:44:49;;;;;;;12.43;10.93;;;;;;;5.33;46.75;101837.63;5199229;28;20121;-78
2022/03/02 08:47:22;;;;;;;2.63;2.42;;;;;;;5.40;47.08;101835.13;5187566;28;20132;-80
2022/03/02 08:49:56;;;;;;;;;;;;;;;5.45;47.96;101833.44;5185013;28;20041;-79
2022/03/02 08:52:29;;;;;;;1.43;1.43;;;;;;;5.46;47.38;101823.06;5207732;28;20011;-79
2022/03/02 08:55:04;;;;;;;0.57;0.57;;;;;;;5.52;47.46;101819.66;5229610;28;20040;-80
2022/03/02 08:57:42;;;;;;;4.55;1.90;;;;;;;5.55;47.43;101824.00;5196711;28;20046;-79
2022/03/02 09:00:19;;;;;;;0.90;0.90;;;;;;;5.70;47.62;101819.00;5205205;28;20448;-80
2022/03/02 09:02:52;;;;;;;0.32;0.32;;;;;;;5.66;47.78;101817.22;5210395;28;20032;-80
2022/03/02 09:05:29;;;;;;;0.98;0.98;;;;;;;5.66;48.44;101812.84;5243147;28;20040;-78
2022/03/02 09:08:02;;;;;;;16.48;1.85;;;;;;;5.67;47.30;101808.53;5227835;28;20036;-78
2022/03/02 09:10:33;;;;;;;1.20;1.20;;;;;;;5.77;47.58;101806.91;5202592;28;20044;-79
2022/03/02 09:13:04;;;;;;;0.63;0.63;;;;;;;5.81;47.74;101808.69;5186473;28;20033;-79
2022/03/02 09:15:37;;;;;;;0.80;0.80;;;;;;;5.85;47.58;101801.78;5214617;28;20636;-79
2022/03/02 09:18:10;;;;;;;0.52;0.52;;;;;;;5.81;47.43;101803.47;5201135;28;20123;-80
2022/03/02 09:20:42;;;;;;;1.05;0.95;;;;;;;5.89;47.60;101806.16;5207616;28;20044;-81
2022/03/02 09:23:12;;;;;;;1.27;1.25;;;;;;;5.82;47.30;101803.50;5193525;28;20414;-80
2022/03/02 09:25:45;;;;;;;2.65;1.75;;;;;;;6.06;46.69;101799.41;5199313;28;20124;-79
2022/03/02 09:28:16;;;;;;;1.02;1.02;;;;;;;5.94;47.13;101807.09;5206076;28;20033;-79
2022/03/02 09:30:48;;;;;;;1.25;1.20;;;;;;;5.98;46.97;101796.72;5200524;28;20041;-79
2022/03/02 09:33:23;;;;;;;1.08;0.95;;;;;;;6.04;47.75;101797.66;5206038;28;20053;-79
2022/03/02 09:35:55;;;;;;;1.10;1.10;;;;;;;6.06;46.99;101799.41;5206827;28;20040;-82
2022/03/02 09:38:27;;;;;;;4.67;2.40;;;;;;;6.17;46.66;101802.09;5238197;28;20056;-79
2022/03/02 09:41:37;;;;;;;0.90;0.90;;;;;;;6.16;45.38;101800.34;5233283;28;20041;-81
2022/03/02 09:44:13;;;;;;;2.40;2.05;;;;;;;6.20;45.80;101794.31;5202889;28;20134;-81
2022/03/02 09:46:49;;;;;;;1.15;1.15;;;;;;;6.21;45.10;101795.16;5239710;28;20028;-79
2022/03/02 09:49:22;;;;;;;1.80;1.70;;;;;;;6.36;46.39;101790.09;5213525;28;20132;-79
2022/03/02 09:52:02;;;;;;;1.27;1.27;;;;;;;6.29;44.94;101789.19;5226634;28;20028;-79
2022/03/02 09:54:38;;;;;;;1.00;1.00;;;;;;;6.37;45.56;101796.19;5218570;28;20047;-80
2022/03/02 09:57:16;;;;;;;1.27;0.93;;;;;;;6.37;44.30;101777.94;5218474;28;20029;-79
2022/03/02 09:59:51;;;;;;;0.77;0.77;;;;;;;6.49;45.12;101775.41;5232643;28;20721;-80
2022/03/02 10:02:40;;;;;;;1.75;1.20;;;;;;;6.54;45.17;101772.81;5237714;28;20037;-80
2022/03/02 10:05:16;;;;;;;0.73;0.73;;;;;;;6.56;44.24;101781.53;5216126;28;20072;-80
2022/03/02 10:07:55;;;;;;;0.90;0.90;;;;;;;6.60;44.54;101781.56;5240716;28;20028;-81
2022/03/02 10:10:31;;;;;;;0.70;0.70;;;;;;;6.74;44.36;101778.16;5227644;28;20454;-79
2022/03/02 10:13:08;;;;;;;1.98;1.58;;;;;;;6.82;44.07;101780.81;5229535;28;20036;-81
2022/03/02 10:15:40;;;;;;;1.70;1.60;;;;;;;6.76;43.64;101768.63;5224874;28;20055;-80
2022/03/02 10:18:12;;;;;;;0.70;0.68;;;;;;;6.90;45.54;101772.16;5219881;28;20388;-79
2022/03/02 10:20:49;;;;;;;0.85;0.85;;;;;;;6.86;44.20;101780.84;5218644;28;20701;-79
2022/03/02 10:23:42;;;;;;;1.00;1.00;;;;;;;6.84;42.94;101776.50;5223772;28;20052;-81
2022/03/02 10:26:19;;;;;;;0.90;0.90;;;;;;;6.90;43.25;101781.75;5229418;28;20393;-82
2022/03/02 10:29:11;;;;;;;1.20;1.20;;;;;;;7.00;42.30;101774.81;5219683;28;20075;-81
2022/03/02 10:31:47;;;;;;;0.60;0.60;;;;;;;7.05;43.63;101789.63;5220419;28;20052;-81
2022/03/02 10:34:17;;;;;;;;;;;;;;;7.05;42.78;101778.34;5226352;28;20025;-80
2022/03/02 10:37:04;;;;;;;1.50;1.23;;;;;;;7.04;44.14;101779.19;5204884;28;20306;-80
2022/03/02 10:39:57;;;;;;;1.58;1.48;;;;;;;7.16;42.88;101781.00;5205895;28;20122;-80
2022/03/02 10:42:36;;;;;;;0.98;0.95;;;;;;;7.24;42.54;101787.13;5205101;28;20059;-81
2022/03/02 10:45:11;;;;;;;0.73;0.73;;;;;;;7.31;41.72;101777.56;5235605;28;20036;-81
2022/03/02 10:48:07;;;;;;;0.77;0.77;;;;;;;7.42;42.27;101775.84;5238139;28;20086;-80
2022/03/02 10:50:40;;;;;;;0.63;0.63;;;;;;;7.33;41.98;101774.09;5208784;28;20044;-80
2022/03/02 10:53:18;;;;;;;0.75;0.75;;;;;;;7.39;42.38;101774.13;5239781;28;20035;-79
2022/03/02 10:55:49;;;;;;;0.50;0.50;;;;;;;7.55;42.36;101772.44;5205082;28;20103;-79
2022/03/02 10:58:19;;;;;;;0.82;0.82;;;;;;;7.57;41.77;101768.06;5226057;28;20060;-79
2022/03/02 11:00:50;;;;;;;1.92;1.80;;;;;;;7.69;40.79;101775.03;5206929;28;20052;-80
2022/03/02 11:03:21;;;;;;;0.57;0.57;;;;;;;7.61;41.64;101770.69;5241189;28;20040;-80
2022/03/02 11:05:51;;;;;;;1.77;1.65;;;;;;;7.65;41.71;101760.25;5223313;28;20056;-80
2022/03/02 11:08:24;;;;;;;0.70;0.70;;;;;;;7.81;41.21;101765.50;5245934;28;20646;-79
2022/03/02 11:10:55;;;;;;;0.90;0.90;;;;;;;7.81;42.36;101758.50;5226092;28;20044;-79
2022/03/02 11:13:26;;;;;;;1.98;1.60;;;;;;;7.88;41.28;101756.78;5243537;28;20024;-80
2022/03/02 11:16:00;;;;;;;1.35;1.00;;;;;;;7.91;42.32;101748.97;5227391;28;20044;-81
2022/03/02 11:18:39;;;;;;;1.70;1.60;;;;;;;7.93;39.93;101749.84;5219166;28;20158;-80
2022/03/02 11:21:17;;;;;;;1.67;1.58;;;;;;;8.09;38.77;101748.09;5203128;28;20539;-81
2022/03/02 11:23:56;;;;;;;1.30;1.20;;;;;;;8.14;38.30;101745.47;5222895;28;20235;-79
2022/03/02 11:26:29;;;;;;;5.45;2.45;;;;;;;8.21;39.98;101744.59;5240719;28;20048;-79
2022/03/02 11:29:06;;;;;;;1.30;1.20;;;;;;;8.18;39.99;101731.53;5211009;28;20097;-82
2022/03/02 11:31:50;;;;;;;2.50;1.17;;;;;;;8.22;40.26;101735.00;5212317;28;20037;-80
2022/03/02 11:34:30;;;;;;;;;;;;;;;8.32;38.64;101739.34;5228975;28;20060;-79
2022/03/02 11:37:05;;;;;;;0.77;0.77;;;;;;;8.33;38.39;101736.75;5208083;28;20007;-82
2022/03/02 11:39:44;;;;;;;0.60;0.60;;;;;;;8.49;37.68;101732.38;5237238;28;20046;-80
2022/03/02 11:42:17;;;;;;;0.77;0.75;;;;;;;8.42;39.43;101735.84;5241930;28;20450;-81
2022/03/02 11:44:49;;;;;;;0.90;0.82;;;;;;;8.48;38.84;101730.63;5241042;28;20084;-79
2022/03/02 11:47:20;;;;;;;0.50;0.50;;;;;;;8.61;37.35;101725.38;5250374;28;20112;-79
2022/03/02 11:49:53;;;;;;;0.70;0.70;;;;;;;8.66;37.59;101723.59;5231185;28;20140;-79
2022/03/02 11:52:25;;;;;;;1.05;0.95;;;;;;;8.82;38.17;101711.34;5244177;28;20463;-79
2022/03/02 11:54:57;;;;;;;1.58;1.50;;;;;;;8.92;37.00;101714.78;5217497;28;20051;-80
2022/03/02 11:57:39;;;;;;;0.52;0.52;;;;;;;8.89;36.99;101707.84;5219777;28;20813;-79
2022/03/02 12:00:10;;;;;;;1.30;1.05;;;;;;;9.01;37.10;101703.44;5205367;28;20406;-81
2022/03/02 12:02:52;;;;;;;1.58;1.48;;;;;;;9.06;35.85;101702.50;5210983;28;20032;-81